Time;durP1;ratioP1;P1;durP2;ratioP2;P2;SDS_P1;SDS_P2;PMS_P1;PMS_P2;Temp;Humidity;BMP_temperature;BMP_pressure;BME280_temperature;BME280_humidity;BME280_pressure;Samples;Min_cycle;Max_cycle;Signal;HPM_P1;HPM_P2
2023/12/31 00:01:43;;;;;;;8.90;5.87;;;;;;;5.45;100.00;97613.78;5093545;28;20287;-73
2023/12/31 00:04:09;;;;;;;8.43;6.23;;;;;;;5.52;100.00;97614.63;5093526;28;20200;-73
2023/12/31 00:06:35;;;;;;;7.43;5.73;;;;;;;5.40;100.00;97610.94;5093489;28;20554;-73
2023/12/31 00:09:02;;;;;;;7.17;6.30;;;;;;;5.33;100.00;97610.91;5093203;28;20777;-73
2023/12/31 00:11:28;;;;;;;6.93;6.23;;;;;;;5.27;100.00;97600.34;5093547;28;20251;-73
2023/12/31 00:13:55;;;;;;;8.60;6.03;;;;;;;5.20;100.00;97597.66;5093553;28;20204;-73
2023/12/31 00:16:21;;;;;;;8.60;6.47;;;;;;;5.15;100.00;97586.13;5093396;28;20576;-73
2023/12/31 00:18:47;;;;;;;7.93;6.20;;;;;;;5.11;100.00;97588.31;5093029;28;20671;-73
2023/12/31 00:21:14;;;;;;;7.63;6.30;;;;;;;5.12;100.00;97591.75;5093394;28;20658;-73
2023/12/31 00:23:40;;;;;;;7.63;6.37;;;;;;;5.07;100.00;97581.81;5093484;28;20200;-73
2023/12/31 00:26:07;;;;;;;7.53;6.10;;;;;;;5.07;100.00;97583.63;5093052;28;20228;-73
2023/12/31 00:28:33;;;;;;;7.37;5.90;;;;;;;4.92;100.00;97573.22;5093332;28;20218;-73
2023/12/31 00:30:59;;;;;;;8.37;7.20;;;;;;;5.11;100.00;97569.06;5096494;28;20224;-73
2023/12/31 00:33:26;;;;;;;10.53;7.30;;;;;;;5.11;100.00;97566.44;5097203;28;20211;-73
2023/12/31 00:35:52;;;;;;;8.67;7.13;;;;;;;5.07;100.00;97557.28;5096822;28;20667;-73
2023/12/31 00:38:19;;;;;;;8.00;6.90;;;;;;;5.02;100.00;97555.22;5097827;28;20216;-73
2023/12/31 00:40:45;;;;;;;9.87;7.00;;;;;;;4.95;100.00;97559.69;5097173;28;20253;-73
2023/12/31 00:43:11;;;;;;;9.33;7.43;;;;;;;5.04;100.00;97552.41;5097124;28;20573;-73
2023/12/31 00:45:38;;;;;;;10.13;6.73;;;;;;;4.92;100.00;97548.69;5096998;28;20234;-73
2023/12/31 00:48:04;;;;;;;10.10;7.00;;;;;;;4.79;100.00;97556.56;5096879;28;20222;-73
2023/12/31 00:50:31;;;;;;;8.27;7.27;;;;;;;4.76;100.00;97549.03;5096996;28;20235;-73
2023/12/31 00:52:57;;;;;;;10.53;6.90;;;;;;;4.82;100.00;97540.34;5096988;28;20207;-73
2023/12/31 00:55:23;;;;;;;9.03;7.80;;;;;;;4.92;100.00;97546.06;5096950;28;20204;-73
2023/12/31 00:57:49;;;;;;;8.37;7.17;;;;;;;4.86;100.00;97538.94;5096792;28;20203;-73
2023/12/31 01:00:16;;;;;;;8.53;7.03;;;;;;;4.88;100.00;97539.59;5096792;28;20219;-73
2023/12/31 01:02:42;;;;;;;10.40;7.33;;;;;;;4.77;100.00;97538.31;5096845;28;20204;-73
2023/12/31 01:05:09;;;;;;;9.87;7.50;;;;;;;4.73;100.00;97528.34;5096659;28;20214;-73
2023/12/31 01:07:35;;;;;;;11.33;7.70;;;;;;;4.75;100.00;97529.78;5096927;28;20204;-73
2023/12/31 01:10:03;;;;;;;9.93;8.07;;;;;;;4.71;100.00;97527.75;5096272;28;20234;-73
2023/12/31 01:12:29;;;;;;;13.00;7.90;;;;;;;4.68;100.00;97526.31;5096734;28;20294;-73
2023/12/31 01:14:55;;;;;;;10.10;8.23;;;;;;;4.70;100.00;97518.22;5096499;28;20207;-73
2023/12/31 01:17:22;;;;;;;9.63;8.10;;;;;;;4.69;100.00;97513.94;5096518;28;20196;-73
2023/12/31 01:19:48;;;;;;;11.73;8.20;;;;;;;4.68;100.00;97521.06;5096669;28;20224;-73
2023/12/31 01:22:14;;;;;;;10.83;8.43;;;;;;;4.63;100.00;97520.81;5096337;28;20204;-73
2023/12/31 01:24:41;;;;;;;11.17;7.27;;;;;;;4.58;100.00;97511.88;5096284;28;20200;-73
2023/12/31 01:27:07;;;;;;;10.83;8.20;;;;;;;4.54;100.00;97506.19;5096072;28;20242;-73
2023/12/31 01:29:37;;;;;;;9.00;7.37;;;;;;;4.40;100.00;97503.69;5096096;28;20268;-73
2023/12/31 01:32:04;;;;;;;10.23;8.50;;;;;;;4.45;100.00;97496.84;5096421;28;20612;-73
2023/12/31 01:34:30;;;;;;;10.77;8.10;;;;;;;4.49;100.00;97492.81;5096100;28;20622;-73
2023/12/31 01:36:56;;;;;;;9.27;7.90;;;;;;;4.37;100.00;97485.63;5096299;28;20210;-73
2023/12/31 01:39:22;;;;;;;10.23;7.90;;;;;;;4.42;100.00;97481.41;5095682;28;20228;-73
2023/12/31 01:41:48;;;;;;;9.83;7.90;;;;;;;4.48;100.00;97482.47;5095557;28;20218;-73
2023/12/31 01:44:14;;;;;;;10.80;8.70;;;;;;;4.44;100.00;97482.03;5095793;28;20239;-73
2023/12/31 01:46:41;;;;;;;10.37;8.20;;;;;;;4.46;100.00;97469.50;5095837;28;20224;-73
2023/12/31 01:49:09;;;;;;;9.50;8.33;;;;;;;4.46;100.00;97469.50;5095424;28;20579;-73
2023/12/31 01:51:36;;;;;;;9.77;7.63;;;;;;;4.53;100.00;97459.81;5095803;28;20200;-73
2023/12/31 01:54:05;;;;;;;10.77;7.87;;;;;;;4.47;100.00;97471.13;5095747;28;20210;-73
2023/12/31 01:56:34;;;;;;;8.47;7.17;;;;;;;4.42;100.00;97459.53;5095689;28;20206;-73
2023/12/31 01:59:02;;;;;;;8.43;7.33;;;;;;;4.52;100.00;97458.19;5095573;28;20614;-73
2023/12/31 02:01:29;;;;;;;11.93;8.40;;;;;;;4.45;100.00;97454.72;5095127;28;20666;-73
2023/12/31 02:03:55;;;;;;;8.83;7.53;;;;;;;4.48;100.00;97451.69;5095618;28;20210;-73
2023/12/31 02:06:22;;;;;;;8.40;6.87;;;;;;;4.44;100.00;97449.66;5095240;28;20224;-73
2023/12/31 02:08:48;;;;;;;10.40;7.57;;;;;;;4.39;100.00;97450.22;5095075;28;20211;-73
2023/12/31 02:11:17;;;;;;;10.90;7.83;;;;;;;4.34;100.00;97444.75;5094663;28;20690;-73
2023/12/31 02:13:43;;;;;;;10.20;7.70;;;;;;;4.28;100.00;97448.16;5094792;28;20207;-73
2023/12/31 02:16:14;;;;;;;9.43;7.63;;;;;;;4.19;100.00;97445.84;5095370;28;20226;-73
2023/12/31 02:18:41;;;;;;;11.27;7.60;;;;;;;4.29;100.00;97430.56;5095308;28;20260;-73
2023/12/31 02:21:07;;;;;;;8.77;7.33;;;;;;;4.33;100.00;97429.97;5095591;28;20220;-73
2023/12/31 02:23:34;;;;;;;11.33;7.80;;;;;;;4.28;100.00;97423.66;5077350;28;20214;-73
2023/12/31 02:26:14;;;;;;;8.70;7.13;;;;;;;4.18;100.00;97429.28;5095037;28;20220;-73
2023/12/31 02:28:41;;;;;;;10.20;7.80;;;;;;;4.20;100.00;97423.84;5094728;28;20188;-73
2023/12/31 02:31:07;;;;;;;9.03;7.17;;;;;;;4.14;100.00;97420.16;5095028;28;20223;-73
2023/12/31 02:33:34;;;;;;;10.30;7.60;;;;;;;4.01;100.00;97420.06;5095030;28;20199;-73
2023/12/31 02:36:00;;;;;;;8.97;7.93;;;;;;;3.97;100.00;97404.88;5095009;28;20200;-73
2023/12/31 02:38:28;;;;;;;11.30;8.17;;;;;;;4.01;100.00;97406.09;5094975;28;20204;-73
2023/12/31 02:40:54;;;;;;;9.97;7.93;;;;;;;4.11;100.00;97391.59;5094592;28;20596;-73
2023/12/31 02:43:20;;;;;;;9.97;7.73;;;;;;;4.23;100.00;97389.22;5094886;28;20204;-73
2023/12/31 02:45:47;;;;;;;11.00;7.80;;;;;;;4.23;100.00;97383.97;5094727;28;20199;-73
2023/12/31 02:48:13;;;;;;;9.63;8.00;;;;;;;4.29;100.00;97372.69;5094474;28;20226;-73
2023/12/31 02:50:40;;;;;;;9.03;7.33;;;;;;;4.42;100.00;97367.44;5094632;28;20232;-73
2023/12/31 02:53:06;;;;;;;11.30;8.43;;;;;;;4.39;100.00;97360.75;5094213;28;20204;-73
2023/12/31 02:55:32;;;;;;;11.07;7.10;;;;;;;4.54;100.00;97369.34;5094334;28;20214;-73
2023/12/31 02:57:59;;;;;;;7.50;6.73;;;;;;;4.58;100.00;97367.09;5094559;28;20200;-73
2023/12/31 03:00:25;;;;;;;8.10;6.77;;;;;;;4.61;100.00;97351.72;5094560;28;20227;-73
2023/12/31 03:02:51;;;;;;;9.83;6.87;;;;;;;4.66;100.00;97345.88;5094527;28;20207;-73
2023/12/31 03:05:18;;;;;;;8.83;6.77;;;;;;;4.67;100.00;97340.41;5094535;28;20206;-73
2023/12/31 03:07:44;;;;;;;9.07;6.70;;;;;;;4.67;100.00;97326.44;5094377;28;20228;-73
2023/12/31 03:10:10;;;;;;;8.13;6.50;;;;;;;4.60;100.00;97323.78;5094341;28;20224;-73
2023/12/31 03:12:37;;;;;;;7.90;6.33;;;;;;;4.61;100.00;97319.34;5094046;28;20671;-73
2023/12/31 03:15:04;;;;;;;7.50;6.70;;;;;;;4.60;100.00;97310.63;5094214;28;20219;-73
2023/12/31 03:17:30;;;;;;;7.87;6.33;;;;;;;4.63;100.00;97306.78;5094035;28;20675;-73
2023/12/31 03:19:57;;;;;;;8.17;6.20;;;;;;;4.60;100.00;97305.34;5094000;28;20235;-73
2023/12/31 03:22:23;;;;;;;7.37;6.50;;;;;;;4.56;100.00;97312.03;5093767;28;20210;-73
2023/12/31 03:24:50;;;;;;;8.43;6.87;;;;;;;4.63;100.00;97299.72;5094125;28;20215;-73
2023/12/31 03:27:16;;;;;;;7.77;6.43;;;;;;;4.64;100.00;97300.50;5093837;28;20231;-73
2023/12/31 03:29:42;;;;;;;8.40;6.50;;;;;;;4.64;100.00;97301.31;5093928;28;20231;-73
2023/12/31 03:32:10;;;;;;;9.97;6.37;;;;;;;4.67;100.00;97297.47;5094033;28;20204;-73
2023/12/31 03:34:36;;;;;;;7.27;6.03;;;;;;;4.74;100.00;97293.03;5094027;28;20227;-73
2023/12/31 03:37:02;;;;;;;8.13;6.00;;;;;;;4.78;100.00;97295.06;5093902;28;20200;-73
2023/12/31 03:39:29;;;;;;;6.83;5.40;;;;;;;4.85;100.00;97274.00;5093892;28;20220;-73
2023/12/31 03:41:55;;;;;;;6.73;5.23;;;;;;;4.91;100.00;97278.44;5093770;28;20204;-73
2023/12/31 03:44:21;;;;;;;6.23;5.43;;;;;;;5.01;100.00;97276.22;5093217;28;20570;-73
2023/12/31 03:46:48;;;;;;;7.27;5.40;;;;;;;4.96;100.00;97276.03;5093511;28;20234;-74
2023/12/31 03:49:14;;;;;;;7.53;5.80;;;;;;;4.97;100.00;97269.75;5093390;28;20686;-73
2023/12/31 03:51:40;;;;;;;5.97;5.13;;;;;;;4.97;100.00;97272.41;5093690;28;20219;-73
2023/12/31 03:54:08;;;;;;;8.33;5.67;;;;;;;4.98;100.00;97266.09;5093785;28;20569;-73
2023/12/31 03:56:35;;;;;;;6.30;5.40;;;;;;;5.06;100.00;97258.81;5093334;28;20662;-73
2023/12/31 03:59:01;;;;;;;6.10;5.50;;;;;;;5.03;100.00;97251.31;5093621;28;20204;-73
2023/12/31 04:01:28;;;;;;;6.37;5.60;;;;;;;4.97;100.00;97251.31;5093644;28;20206;-73
2023/12/31 04:03:54;;;;;;;7.73;5.73;;;;;;;4.94;100.00;97244.63;5092487;28;20678;-73
2023/12/31 04:06:21;;;;;;;7.20;5.40;;;;;;;4.95;100.00;97248.06;5093107;28;20227;-73
2023/12/31 04:08:48;;;;;;;8.23;6.13;;;;;;;4.90;100.00;97246.06;5093013;28;20208;-73
2023/12/31 04:11:14;;;;;;;7.80;6.13;;;;;;;4.86;100.00;97233.47;5093439;28;20204;-73
2023/12/31 04:13:44;;;;;;;6.63;5.20;;;;;;;4.77;100.00;97235.53;5093415;28;20216;-73
2023/12/31 04:16:10;;;;;;;6.87;5.63;;;;;;;4.76;100.00;97225.19;5093408;28;20208;-73
2023/12/31 04:18:36;;;;;;;7.17;5.87;;;;;;;4.64;100.00;97226.78;5093298;28;20204;-73
2023/12/31 04:21:03;;;;;;;7.57;5.80;;;;;;;4.58;100.00;97217.06;5093444;28;20220;-73
2023/12/31 04:23:29;;;;;;;7.37;6.00;;;;;;;4.54;100.00;97202.69;5093300;28;20230;-73
2023/12/31 04:25:56;;;;;;;6.33;5.33;;;;;;;4.53;100.00;97201.09;5093082;28;20666;-73
2023/12/31 04:28:22;;;;;;;9.83;5.40;;;;;;;4.55;100.00;97197.25;5093452;28;20234;-73
2023/12/31 04:30:48;;;;;;;7.13;5.63;;;;;;;4.56;100.00;97205.97;5093245;28;20224;-73
2023/12/31 04:33:15;;;;;;;6.10;5.50;;;;;;;4.57;100.00;97197.84;5093323;28;20287;-73
2023/12/31 04:35:41;;;;;;;6.50;5.40;;;;;;;4.57;100.00;97194.41;5092823;28;20571;-73
2023/12/31 04:38:08;;;;;;;7.17;5.80;;;;;;;4.58;100.00;97201.28;5093194;28;20202;-73
2023/12/31 04:40:34;;;;;;;7.10;5.63;;;;;;;4.62;100.00;97189.34;5093058;28;20251;-73
2023/12/31 04:43:00;;;;;;;6.90;5.67;;;;;;;4.52;100.00;97184.47;5092712;28;20686;-73
2023/12/31 04:45:27;;;;;;;6.37;5.60;;;;;;;4.47;100.00;97181.63;5093026;28;20204;-73
2023/12/31 04:47:53;;;;;;;6.00;5.33;;;;;;;4.42;100.00;97172.72;5092931;28;20234;-73
2023/12/31 04:50:19;;;;;;;6.90;5.73;;;;;;;4.43;100.00;97177.00;5092704;28;20231;-74
2023/12/31 04:52:45;;;;;;;6.60;5.63;;;;;;;4.37;100.00;97168.06;5093088;28;20200;-74
2023/12/31 04:55:12;;;;;;;8.43;5.77;;;;;;;4.41;100.00;97169.31;5093353;28;20208;-74
2023/12/31 04:57:38;;;;;;;8.13;5.50;;;;;;;4.42;100.00;97172.72;5093095;28;20200;-74
2023/12/31 05:00:06;;;;;;;6.67;5.17;;;;;;;4.37;100.00;97172.53;5093033;28;20227;-73
2023/12/31 05:02:32;;;;;;;5.90;4.87;;;;;;;4.44;100.00;97160.19;5092753;28;20684;-73
2023/12/31 05:04:58;;;;;;;5.20;4.73;;;;;;;4.44;100.00;97160.19;5092797;28;20208;-73
2023/12/31 05:07:25;;;;;;;7.47;4.83;;;;;;;4.44;100.00;97155.72;5092760;28;20220;-73
2023/12/31 05:09:51;;;;;;;6.17;4.80;;;;;;;4.38;100.00;97148.66;5092636;28;20738;-73
2023/12/31 05:12:17;;;;;;;5.77;4.87;;;;;;;4.38;100.00;97155.75;5092625;28;20204;-73
2023/12/31 05:14:44;;;;;;;6.23;5.20;;;;;;;4.27;100.00;97159.78;5092533;28;20564;-73
2023/12/31 05:17:10;;;;;;;6.07;5.27;;;;;;;4.28;100.00;97150.88;5095892;28;20660;-73
2023/12/31 05:19:36;;;;;;;5.93;4.80;;;;;;;4.32;100.00;97151.25;5096211;28;20706;-73
2023/12/31 05:22:03;;;;;;;6.70;5.03;;;;;;;4.29;100.00;97146.44;5096421;28;20285;-73
2023/12/31 05:24:30;;;;;;;6.90;4.87;;;;;;;4.31;100.00;97144.41;5096307;28;20249;-73
2023/12/31 05:26:56;;;;;;;6.03;5.10;;;;;;;4.37;100.00;97144.41;5096228;28;20228;-73
2023/12/31 05:29:22;;;;;;;5.83;4.57;;;;;;;4.36;100.00;97142.78;5096230;28;20231;-73
2023/12/31 05:31:49;;;;;;;6.53;4.70;;;;;;;4.41;100.00;97145.63;5096329;28;20200;-73
2023/12/31 05:34:15;;;;;;;5.83;4.80;;;;;;;4.42;100.00;97146.41;5096123;28;20204;-73
2023/12/31 05:36:41;;;;;;;6.03;4.40;;;;;;;4.38;100.00;97132.06;5096056;28;20200;-73
2023/12/31 05:39:08;;;;;;;5.43;4.50;;;;;;;4.36;100.00;97134.06;5095936;28;20245;-73
2023/12/31 05:41:36;;;;;;;5.27;4.37;;;;;;;4.37;100.00;97127.78;5096134;28;20200;-73
2023/12/31 05:44:03;;;;;;;5.17;4.17;;;;;;;4.39;100.00;97129.22;5095500;28;20569;-74
2023/12/31 05:46:29;;;;;;;4.03;3.63;;;;;;;4.67;100.00;97119.28;5095815;28;20301;-73
2023/12/31 05:48:56;;;;;;;4.40;4.00;;;;;;;4.50;100.00;97123.34;5095489;28;20219;-73
2023/12/31 05:51:22;;;;;;;4.97;3.83;;;;;;;4.50;100.00;97107.56;5096039;28;20208;-73
2023/12/31 05:53:49;;;;;;;6.33;3.93;;;;;;;4.48;100.00;97108.78;5095464;28;20693;-73
2023/12/31 05:56:15;;;;;;;5.53;3.90;;;;;;;4.51;100.00;97111.81;5095714;28;20200;-73
2023/12/31 05:58:42;;;;;;;4.57;3.83;;;;;;;4.48;100.00;97114.03;5095355;28;20203;-73
2023/12/31 06:01:09;;;;;;;4.17;3.77;;;;;;;4.50;100.00;97118.09;5095254;28;20223;-73
2023/12/31 06:03:35;;;;;;;5.43;4.00;;;;;;;4.59;100.00;97121.31;5095305;28;20207;-73
2023/12/31 06:06:02;;;;;;;4.73;3.47;;;;;;;4.59;100.00;97111.59;5095466;28;20212;-73
2023/12/31 06:08:28;;;;;;;3.97;3.10;;;;;;;4.62;100.00;97100.66;5095253;28;20220;-73
2023/12/31 06:10:55;;;;;;;3.37;2.77;;;;;;;4.81;100.00;97099.00;5095370;28;20231;-73
2023/12/31 06:13:22;;;;;;;2.40;2.20;;;;;;;4.97;100.00;97093.31;5095392;28;20208;-73
2023/12/31 06:15:48;;;;;;;2.00;1.80;;;;;;;5.18;100.00;97082.47;5094973;28;20211;-73
2023/12/31 06:18:15;;;;;;;2.13;1.90;;;;;;;5.33;100.00;97083.84;5095227;28;20203;-74
2023/12/31 06:20:41;;;;;;;1.97;1.83;;;;;;;5.34;100.00;97095.19;5095262;28;20230;-74
2023/12/31 06:23:07;;;;;;;3.80;2.10;;;;;;;5.34;100.00;97101.25;5095216;28;20200;-74
2023/12/31 06:25:34;;;;;;;3.43;2.20;;;;;;;5.28;100.00;97098.66;5095296;28;20211;-74
2023/12/31 06:28:00;;;;;;;3.63;2.97;;;;;;;5.27;100.00;97107.56;5094245;28;20223;-74
2023/12/31 06:30:26;;;;;;;5.37;3.17;;;;;;;5.17;100.00;97121.19;5095005;28;20257;-74
2023/12/31 06:32:53;;;;;;;4.53;3.50;;;;;;;5.25;100.00;97107.00;5095050;28;20204;-74
2023/12/31 06:35:19;;;;;;;3.83;3.20;;;;;;;5.21;100.00;97101.31;5094951;28;20207;-74
2023/12/31 06:37:45;;;;;;;4.33;3.20;;;;;;;5.04;100.00;97109.88;5094916;28;20547;-74
2023/12/31 06:40:12;;;;;;;3.93;3.30;;;;;;;5.17;100.00;97109.84;5094478;28;20719;-74
2023/12/31 06:42:38;;;;;;;3.87;2.97;;;;;;;5.31;100.00;97109.59;5094883;28;20206;-74
2023/12/31 06:45:06;;;;;;;3.33;2.57;;;;;;;5.50;100.00;97106.06;5094725;28;20199;-74
2023/12/31 06:47:32;;;;;;;2.70;2.50;;;;;;;5.57;100.00;97101.56;5094456;28;20736;-74
2023/12/31 06:49:58;;;;;;;3.47;2.37;;;;;;;5.51;100.00;97106.84;5094239;28;20227;-74
2023/12/31 06:52:25;;;;;;;3.23;2.20;;;;;;;5.58;100.00;97120.81;5094642;28;20203;-74
2023/12/31 06:54:52;;;;;;;3.80;2.30;;;;;;;5.53;100.00;97115.38;5095496;28;20286;-74
2023/12/31 06:57:19;;;;;;;3.23;2.60;;;;;;;5.49;100.00;97104.44;5094759;28;20222;-74
2023/12/31 06:59:45;;;;;;;3.20;2.53;;;;;;;5.48;100.00;97107.28;5094257;28;20706;-74
2023/12/31 07:02:12;;;;;;;2.90;2.50;;;;;;;5.48;100.00;97112.56;5094106;28;20208;-74
2023/12/31 07:04:38;;;;;;;3.40;2.50;;;;;;;5.49;100.00;97106.28;5094006;28;20663;-74
2023/12/31 07:07:05;;;;;;;3.20;2.90;;;;;;;5.54;100.00;97109.09;5094299;28;20230;-74
2023/12/31 07:09:32;;;;;;;2.60;2.40;;;;;;;5.50;100.00;97099.97;5094458;28;20219;-73
2023/12/31 07:11:59;;;;;;;2.93;2.30;;;;;;;5.61;100.00;97117.78;5094297;28;20207;-73
2023/12/31 07:14:26;;;;;;;3.30;2.20;;;;;;;5.59;100.00;97117.16;5094211;28;20561;-73
2023/12/31 07:16:53;;;;;;;4.53;2.40;;;;;;;5.62;100.00;97130.75;5094163;28;20204;-73
2023/12/31 07:19:20;;;;;;;2.73;2.17;;;;;;;5.64;100.00;97133.16;5094182;28;20234;-73
2023/12/31 07:21:46;;;;;;;2.20;2.00;;;;;;;5.75;100.00;97127.25;5094122;28;20611;-73
2023/12/31 07:24:12;;;;;;;2.60;2.40;;;;;;;5.74;100.00;97125.63;5094121;28;20200;-73
2023/12/31 07:26:39;;;;;;;2.83;2.13;;;;;;;5.70;100.00;97122.59;5094119;28;20210;-73
2023/12/31 07:29:05;;;;;;;2.67;2.20;;;;;;;5.67;100.00;97133.56;5093910;28;20239;-73
2023/12/31 07:31:34;;;;;;;3.87;2.20;;;;;;;5.75;100.00;97143.06;5093683;28;20580;-73
2023/12/31 07:34:01;;;;;;;1.90;1.80;;;;;;;5.85;100.00;97132.88;5093972;28;20239;-73
2023/12/31 07:36:27;;;;;;;2.43;2.00;;;;;;;5.76;100.00;97132.31;5093776;28;20214;-73
2023/12/31 07:38:54;;;;;;;2.20;2.00;;;;;;;5.77;100.00;97136.56;5093609;28;20200;-73
2023/12/31 07:41:20;;;;;;;3.17;2.07;;;;;;;5.76;100.00;97136.75;5093758;28;20222;-73
2023/12/31 07:43:46;;;;;;;2.40;2.00;;;;;;;5.75;100.00;97143.84;5093691;28;20208;-73
2023/12/31 07:46:13;;;;;;;3.50;2.30;;;;;;;5.70;100.00;97148.16;5093684;28;20204;-73
2023/12/31 07:48:40;;;;;;;4.23;2.73;;;;;;;5.70;100.00;97142.88;5093521;28;20224;-73
2023/12/31 07:51:08;;;;;;;3.50;2.50;;;;;;;5.61;100.00;97133.59;5093464;28;20336;-73
2023/12/31 07:53:35;;;;;;;3.10;2.77;;;;;;;5.62;100.00;97141.31;5093608;28;20208;-74
2023/12/31 07:56:01;;;;;;;4.10;3.17;;;;;;;5.63;100.00;97137.63;5093552;28;20208;-74
2023/12/31 07:58:28;;;;;;;4.37;2.23;;;;;;;5.72;100.00;97143.47;5093562;28;20195;-74
2023/12/31 08:00:58;;;;;;;4.47;2.40;;;;;;;5.75;100.00;97137.78;5093402;28;20232;-73
2023/12/31 08:03:26;;;;;;;3.33;2.33;;;;;;;5.85;100.00;97140.81;5093490;28;20256;-73
2023/12/31 08:05:53;;;;;;;2.43;1.97;;;;;;;5.94;100.00;97121.06;5093078;28;20559;-74
2023/12/31 08:08:19;;;;;;;2.00;1.80;;;;;;;6.05;100.00;97112.47;5093291;28;20220;-74
2023/12/31 08:10:46;;;;;;;1.50;1.40;;;;;;;6.10;100.00;97120.56;5093098;28;20314;-74
2023/12/31 08:13:12;;;;;;;1.77;1.50;;;;;;;6.18;100.00;97120.28;5093275;28;20678;-74
2023/12/31 08:15:39;;;;;;;1.60;1.50;;;;;;;6.22;100.00;97113.56;5093528;28;20200;-74
2023/12/31 08:18:05;;;;;;;1.80;1.40;;;;;;;6.34;100.00;97125.06;5093600;28;20205;-74
2023/12/31 08:20:33;;;;;;;1.40;1.30;;;;;;;6.44;100.00;97120.91;5093163;28;20234;-74
2023/12/31 08:23:00;;;;;;;2.30;1.33;;;;;;;6.54;100.00;97128.34;5093179;28;20203;-74
2023/12/31 08:25:26;;;;;;;1.13;1.13;;;;;;;6.63;100.00;97129.69;5093008;28;20210;-74
2023/12/31 08:27:52;;;;;;;1.37;1.10;;;;;;;6.67;100.00;97125.59;5093369;28;20295;-73
2023/12/31 08:30:19;;;;;;;1.50;1.40;;;;;;;6.84;100.00;97129.31;5093163;28;20741;-73
2023/12/31 08:32:45;;;;;;;2.23;1.10;;;;;;;6.77;100.00;97129.34;5093345;28;20539;-73
2023/12/31 08:35:12;;;;;;;1.47;1.37;;;;;;;6.94;100.00;97132.25;5092912;28;20208;-73
2023/12/31 08:37:39;;;;;;;1.63;1.50;;;;;;;7.09;100.00;97130.03;5093244;28;20200;-73
2023/12/31 08:40:06;;;;;;;1.53;1.23;;;;;;;7.17;100.00;97127.13;5092521;28;20776;-73
2023/12/31 08:42:33;;;;;;;1.93;1.30;;;;;;;7.20;100.00;97116.91;5092978;28;20204;-73
2023/12/31 08:44:59;;;;;;;1.40;1.30;;;;;;;7.19;100.00;97109.22;5093148;28;20550;-73
2023/12/31 08:47:25;;;;;;;1.63;1.30;;;;;;;7.37;100.00;97106.56;5092373;28;20603;-73
2023/12/31 08:49:52;;;;;;;2.53;1.33;;;;;;;7.33;100.00;97111.47;5093059;28;20232;-73
2023/12/31 08:52:18;;;;;;;2.10;1.40;;;;;;;7.26;100.00;97109.94;5096841;28;20259;-73
2023/12/31 08:54:44;;;;;;;1.57;1.40;;;;;;;7.19;100.00;97102.09;5097005;28;20230;-73
2023/12/31 08:57:11;;;;;;;2.83;1.50;;;;;;;7.26;100.00;97107.31;5096532;28;20201;-73
2023/12/31 08:59:38;;;;;;;2.10;1.30;;;;;;;7.31;100.00;97099.50;5096315;28;20220;-73
2023/12/31 09:02:04;;;;;;;2.63;1.90;;;;;;;7.24;100.00;97088.22;5096084;28;20311;-73
2023/12/31 09:04:34;;;;;;;2.77;1.93;;;;;;;7.07;100.00;97097.75;5096242;28;20216;-73
2023/12/31 09:07:01;;;;;;;2.93;2.40;;;;;;;7.17;100.00;97090.13;5096479;28;20211;-73
2023/12/31 09:09:27;;;;;;;2.83;2.20;;;;;;;7.06;100.00;97089.00;5096629;28;20597;-73
2023/12/31 09:11:54;;;;;;;2.70;2.37;;;;;;;6.92;100.00;97097.31;5096557;28;20211;-73
2023/12/31 09:14:20;;;;;;;2.57;2.00;;;;;;;6.90;100.00;97094.06;5096555;28;20210;-73
2023/12/31 09:16:46;;;;;;;2.67;2.47;;;;;;;6.96;100.00;97095.81;5096426;28;20204;-73
2023/12/31 09:19:13;;;;;;;3.00;2.30;;;;;;;6.88;100.00;97099.56;5096298;28;20304;-73
2023/12/31 09:21:39;;;;;;;3.00;2.40;;;;;;;7.08;100.00;97091.44;5096233;28;20209;-73
2023/12/31 09:24:05;;;;;;;3.13;2.53;;;;;;;7.03;100.00;97086.00;5096143;28;20204;-73
2023/12/31 09:26:32;;;;;;;2.70;2.33;;;;;;;7.00;100.00;97089.09;5096182;28;20214;-73
2023/12/31 09:28:59;;;;;;;2.50;2.30;;;;;;;6.96;100.00;97087.91;5095979;28;20273;-73
2023/12/31 09:31:25;;;;;;;2.97;2.63;;;;;;;7.00;100.00;97091.72;5096478;28;20232;-73
2023/12/31 09:33:52;;;;;;;3.93;2.63;;;;;;;6.92;100.00;97092.81;5096159;28;20227;-73
2023/12/31 09:36:19;;;;;;;2.97;2.43;;;;;;;6.97;100.00;97094.81;5096123;28;20212;-73
2023/12/31 09:38:45;;;;;;;2.97;2.60;;;;;;;7.01;100.00;97088.88;5095945;28;20200;-74
2023/12/31 09:41:22;;;;;;;2.87;2.57;;;;;;;7.09;100.00;97093.03;5095722;28;20671;-74
2023/12/31 09:43:52;;;;;;;3.50;3.20;;;;;;;7.10;100.00;97079.63;5096645;28;20198;-74
2023/12/31 09:46:21;;;;;;;4.07;2.73;;;;;;;7.19;100.00;97078.28;5095743;28;20215;-74
2023/12/31 09:48:50;;;;;;;4.00;3.10;;;;;;;7.13;100.00;97058.03;5095323;28;20233;-74
2023/12/31 09:51:19;;;;;;;3.00;2.70;;;;;;;7.11;100.00;97059.31;5095733;28;20205;-74
2023/12/31 09:53:47;;;;;;;3.20;2.90;;;;;;;7.16;100.00;97052.31;5095850;28;20199;-74
2023/12/31 09:56:17;;;;;;;3.53;3.07;;;;;;;7.25;100.00;97047.53;5095500;28;20692;-74
2023/12/31 09:58:44;;;;;;;3.20;2.70;;;;;;;7.31;100.00;97047.47;5096876;28;20278;-74
2023/12/31 10:01:11;;;;;;;3.40;3.00;;;;;;;7.41;100.00;97038.97;5095099;28;20206;-74
2023/12/31 10:03:41;;;;;;;3.30;3.00;;;;;;;7.56;100.00;97036.75;5094619;28;20206;-74
2023/12/31 10:06:09;;;;;;;3.00;2.70;;;;;;;7.71;100.00;97029.22;5095469;28;20203;-73
2023/12/31 10:08:36;;;;;;;4.77;3.30;;;;;;;7.72;100.00;97014.94;5095427;28;20223;-73
2023/12/31 10:11:02;;;;;;;3.27;2.97;;;;;;;7.58;100.00;97013.53;5095265;28;20272;-73
2023/12/31 10:13:30;;;;;;;3.10;2.80;;;;;;;7.43;100.00;97002.56;5095390;28;20211;-73
2023/12/31 10:15:56;;;;;;;3.63;2.57;;;;;;;7.45;100.00;96989.91;5095294;28;20261;-73
2023/12/31 10:18:25;;;;;;;2.83;2.40;;;;;;;7.46;100.00;96984.41;5095016;28;20204;-73
2023/12/31 10:20:52;;;;;;;3.37;3.07;;;;;;;7.46;100.00;96983.63;5095150;28;20235;-73
2023/12/31 10:23:18;;;;;;;3.63;3.20;;;;;;;7.35;100.00;96976.44;5094764;28;20204;-73
2023/12/31 10:25:45;;;;;;;3.83;2.90;;;;;;;7.37;100.00;96969.09;5094321;28;20208;-73
2023/12/31 10:28:12;;;;;;;4.47;3.00;;;;;;;7.28;100.00;96950.09;5094928;28;20216;-73
2023/12/31 10:30:39;;;;;;;3.67;3.20;;;;;;;7.24;100.00;96932.28;5095087;28;20227;-73
2023/12/31 10:33:10;;;;;;;4.03;3.03;;;;;;;7.27;100.00;96939.72;5095122;28;20200;-73
2023/12/31 10:35:37;;;;;;;3.07;2.77;;;;;;;7.34;100.00;96943.09;5094996;28;20210;-73
2023/12/31 10:38:07;;;;;;;3.03;2.73;;;;;;;7.43;100.00;96945.19;5094729;28;20200;-73
2023/12/31 10:40:34;;;;;;;3.27;2.97;;;;;;;7.49;100.00;96954.06;5094711;28;20254;-73
2023/12/31 10:43:04;;;;;;;3.30;2.90;;;;;;;7.58;100.00;96950.06;5094821;28;20209;-73
2023/12/31 10:45:32;;;;;;;3.30;2.80;;;;;;;7.67;100.00;96932.81;5094916;28;20194;-73
2023/12/31 10:48:01;;;;;;;5.13;2.70;;;;;;;7.72;100.00;96931.13;5094512;28;20219;-73
2023/12/31 10:50:28;;;;;;;4.40;2.57;;;;;;;7.83;100.00;96927.66;5094414;28;20745;-73
2023/12/31 10:52:57;;;;;;;3.00;2.50;;;;;;;7.89;100.00;96923.31;5094241;28;20210;-73
2023/12/31 10:55:24;;;;;;;4.03;2.73;;;;;;;7.98;100.00;96917.47;5094422;28;20212;-73
2023/12/31 10:57:52;;;;;;;3.30;3.00;;;;;;;8.07;100.00;96924.00;5094340;28;20214;-73
2023/12/31 11:00:19;;;;;;;4.40;2.93;;;;;;;8.21;100.00;96911.38;5094490;28;20315;-74
2023/12/31 11:02:46;;;;;;;2.87;2.40;;;;;;;8.27;100.00;96905.13;5094480;28;20633;-74
2023/12/31 11:05:14;;;;;;;3.17;2.87;;;;;;;8.30;100.00;96889.63;5094356;28;20282;-74
2023/12/31 11:07:41;;;;;;;2.60;2.40;;;;;;;8.39;100.00;96874.97;5094336;28;20208;-74
2023/12/31 11:10:09;;;;;;;3.00;2.40;;;;;;;8.49;100.00;96875.19;5094051;28;20586;-74
2023/12/31 11:12:37;;;;;;;3.47;2.30;;;;;;;8.56;100.00;96875.06;5093875;28;20204;-74
2023/12/31 11:15:08;;;;;;;2.10;1.90;;;;;;;8.66;100.00;96873.41;5093711;28;20204;-73
2023/12/31 11:17:56;;;;;;;2.37;2.17;;;;;;;8.70;100.00;96871.91;5094253;28;20192;-74
2023/12/31 11:20:51;;;;;;;4.43;2.60;;;;;;;8.74;100.00;96872.22;5094056;28;20257;-74
2023/12/31 11:23:41;;;;;;;3.50;2.50;;;;;;;8.73;100.00;96865.34;5093829;28;20199;-74
2023/12/31 11:26:07;;;;;;;3.63;2.63;;;;;;;8.78;100.00;96886.63;5094202;28;20188;-74
2023/12/31 11:28:35;;;;;;;4.00;3.00;;;;;;;8.71;100.00;96884.09;5093553;28;20701;-74
2023/12/31 11:31:02;;;;;;;4.03;3.33;;;;;;;8.64;100.00;96888.72;5094002;28;20223;-74